Terminal Aerodrome Forecast
Issued by NWS

Home | Current Version | Previous Version | Text Only | Print | Product List | Glossary On
Versions: 1 2 3 4 5 6 7 8 9 10 11 12 13
000
FTUS43 KAPX 162300
TAFTVC
TAF
KTVC 162326Z 1700/1724 23004KT P6SM SKC
     FM170600 22006KT P6SM SCT090
     FM171400 25011G16KT P6SM BKN100
     FM172100 31009KT P6SM BKN250=

USA.gov is the U.S. government's official web portal to all federal, state and local government web resources and services.